sensor_id;sensor_type;location;lat;lon;timestamp;temperature;humidity
22450;DHT22;11392;57.390;-2.468;2023-12-20T00:02:18;4.20;99.90
22450;DHT22;11392;57.390;-2.468;2023-12-20T00:04:45;4.20;99.90
22450;DHT22;11392;57.390;-2.468;2023-12-20T00:07:12;4.20;99.90
22450;DHT22;11392;57.390;-2.468;2023-12-20T00:09:40;4.20;99.90
22450;DHT22;11392;57.390;-2.468;2023-12-20T00:12:07;4.30;99.90
22450;DHT22;11392;57.390;-2.468;2023-12-20T00:14:34;4.40;99.90
22450;DHT22;11392;57.390;-2.468;2023-12-20T00:17:01;4.40;99.90
22450;DHT22;11392;57.390;-2.468;2023-12-20T00:19:28;4.40;99.90
22450;DHT22;11392;57.390;-2.468;2023-12-20T00:21:55;4.30;99.90
22450;DHT22;11392;57.390;-2.468;2023-12-20T00:24:22;4.20;99.90
22450;DHT22;11392;57.390;-2.468;2023-12-20T00:26:49;4.20;99.90
22450;DHT22;11392;57.390;-2.468;2023-12-20T00:29:16;4.20;99.90
22450;DHT22;11392;57.390;-2.468;2023-12-20T00:31:43;4.10;99.90
22450;DHT22;11392;57.390;-2.468;2023-12-20T00:34:11;4.00;99.90
22450;DHT22;11392;57.390;-2.468;2023-12-20T00:36:38;4.00;99.90
22450;DHT22;11392;57.390;-2.468;2023-12-20T00:39:05;4.00;99.90
22450;DHT22;11392;57.390;-2.468;2023-12-20T00:41:33;4.10;99.90
22450;DHT22;11392;57.390;-2.468;2023-12-20T00:44:00;4.10;99.90
22450;DHT22;11392;57.390;-2.468;2023-12-20T00:46:27;4.20;99.90
22450;DHT22;11392;57.390;-2.468;2023-12-20T00:48:54;4.10;99.90
22450;DHT22;11392;57.390;-2.468;2023-12-20T00:51:22;4.20;99.90
22450;DHT22;11392;57.390;-2.468;2023-12-20T00:53:50;4.20;99.90
22450;DHT22;11392;57.390;-2.468;2023-12-20T00:56:21;4.20;99.90
22450;DHT22;11392;57.390;-2.468;2023-12-20T00:58:48;4.20;99.90
22450;DHT22;11392;57.390;-2.468;2023-12-20T01:01:15;4.10;99.90
22450;DHT22;11392;57.390;-2.468;2023-12-20T01:03:44;4.10;99.90
22450;DHT22;11392;57.390;-2.468;2023-12-20T01:06:11;4.10;99.90
22450;DHT22;11392;57.390;-2.468;2023-12-20T01:08:38;4.10;99.90
22450;DHT22;11392;57.390;-2.468;2023-12-20T01:11:06;4.00;99.90
22450;DHT22;11392;57.390;-2.468;2023-12-20T01:13:33;4.00;99.90
22450;DHT22;11392;57.390;-2.468;2023-12-20T01:16:00;4.00;99.90
22450;DHT22;11392;57.390;-2.468;2023-12-20T01:18:27;4.00;99.90
22450;DHT22;11392;57.390;-2.468;2023-12-20T01:20:55;4.00;99.90
22450;DHT22;11392;57.390;-2.468;2023-12-20T01:23:22;4.00;99.90
22450;DHT22;11392;57.390;-2.468;2023-12-20T01:25:49;3.90;99.90
22450;DHT22;11392;57.390;-2.468;2023-12-20T01:28:16;3.90;99.90
22450;DHT22;11392;57.390;-2.468;2023-12-20T01:30:44;3.80;99.90
22450;DHT22;11392;57.390;-2.468;2023-12-20T01:33:11;3.70;99.90
22450;DHT22;11392;57.390;-2.468;2023-12-20T01:35:38;3.60;99.90
22450;DHT22;11392;57.390;-2.468;2023-12-20T01:38:05;3.70;99.90
22450;DHT22;11392;57.390;-2.468;2023-12-20T01:40:32;3.70;99.90
22450;DHT22;11392;57.390;-2.468;2023-12-20T01:43:01;3.70;99.90
22450;DHT22;11392;57.390;-2.468;2023-12-20T01:45:28;3.70;99.90
22450;DHT22;11392;57.390;-2.468;2023-12-20T01:47:56;3.70;99.90
22450;DHT22;11392;57.390;-2.468;2023-12-20T01:50:24;3.70;99.90
22450;DHT22;11392;57.390;-2.468;2023-12-20T01:52:54;3.60;99.90
22450;DHT22;11392;57.390;-2.468;2023-12-20T01:55:25;3.60;99.90
22450;DHT22;11392;57.390;-2.468;2023-12-20T01:57:53;3.60;99.90
22450;DHT22;11392;57.390;-2.468;2023-12-20T02:00:21;3.60;99.90
22450;DHT22;11392;57.390;-2.468;2023-12-20T02:02:51;3.60;99.90
22450;DHT22;11392;57.390;-2.468;2023-12-20T02:05:20;3.70;99.90
22450;DHT22;11392;57.390;-2.468;2023-12-20T02:07:48;3.70;99.90
22450;DHT22;11392;57.390;-2.468;2023-12-20T02:10:16;3.80;99.90
22450;DHT22;11392;57.390;-2.468;2023-12-20T02:12:43;3.80;99.90
22450;DHT22;11392;57.390;-2.468;2023-12-20T02:15:11;3.80;99.90
22450;DHT22;11392;57.390;-2.468;2023-12-20T02:17:41;3.70;99.90
22450;DHT22;11392;57.390;-2.468;2023-12-20T02:20:11;3.70;99.90
22450;DHT22;11392;57.390;-2.468;2023-12-20T02:22:40;3.70;99.90
22450;DHT22;11392;57.390;-2.468;2023-12-20T02:25:11;3.60;99.90
22450;DHT22;11392;57.390;-2.468;2023-12-20T02:27:40;3.60;99.90
22450;DHT22;11392;57.390;-2.468;2023-12-20T02:30:07;3.70;99.90
22450;DHT22;11392;57.390;-2.468;2023-12-20T02:32:35;3.70;99.90
22450;DHT22;11392;57.390;-2.468;2023-12-20T02:35:02;3.70;99.90
22450;DHT22;11392;57.390;-2.468;2023-12-20T02:37:29;3.80;99.90
22450;DHT22;11392;57.390;-2.468;2023-12-20T02:39:56;3.80;99.90
22450;DHT22;11392;57.390;-2.468;2023-12-20T02:42:23;3.80;99.90
22450;DHT22;11392;57.390;-2.468;2023-12-20T02:44:50;3.80;99.90
22450;DHT22;11392;57.390;-2.468;2023-12-20T02:47:17;3.90;99.90
22450;DHT22;11392;57.390;-2.468;2023-12-20T02:49:44;3.90;99.90
22450;DHT22;11392;57.390;-2.468;2023-12-20T02:52:12;3.90;99.90
22450;DHT22;11392;57.390;-2.468;2023-12-20T02:54:39;3.90;99.90
22450;DHT22;11392;57.390;-2.468;2023-12-20T02:57:06;3.80;99.90
22450;DHT22;11392;57.390;-2.468;2023-12-20T02:59:33;3.70;99.90
22450;DHT22;11392;57.390;-2.468;2023-12-20T03:02:00;3.60;99.90
22450;DHT22;11392;57.390;-2.468;2023-12-20T03:04:27;3.50;99.90
22450;DHT22;11392;57.390;-2.468;2023-12-20T03:06:55;3.40;99.90
22450;DHT22;11392;57.390;-2.468;2023-12-20T03:09:21;3.40;99.90
22450;DHT22;11392;57.390;-2.468;2023-12-20T03:11:48;3.40;99.90
22450;DHT22;11392;57.390;-2.468;2023-12-20T03:14:15;3.40;99.90
22450;DHT22;11392;57.390;-2.468;2023-12-20T03:16:49;3.40;99.90
22450;DHT22;11392;57.390;-2.468;2023-12-20T03:19:17;3.30;99.90
22450;DHT22;11392;57.390;-2.468;2023-12-20T03:21:45;3.40;99.90
22450;DHT22;11392;57.390;-2.468;2023-12-20T03:24:13;3.50;99.90
22450;DHT22;11392;57.390;-2.468;2023-12-20T03:26:40;3.60;99.90
22450;DHT22;11392;57.390;-2.468;2023-12-20T03:29:07;3.70;99.90
22450;DHT22;11392;57.390;-2.468;2023-12-20T03:31:34;3.70;99.90
22450;DHT22;11392;57.390;-2.468;2023-12-20T03:34:02;3.70;99.90
22450;DHT22;11392;57.390;-2.468;2023-12-20T03:36:29;3.60;99.90
22450;DHT22;11392;57.390;-2.468;2023-12-20T03:38:56;3.60;99.90
22450;DHT22;11392;57.390;-2.468;2023-12-20T03:41:23;3.60;99.90
22450;DHT22;11392;57.390;-2.468;2023-12-20T03:43:50;3.40;99.90
22450;DHT22;11392;57.390;-2.468;2023-12-20T03:46:17;3.30;99.90
22450;DHT22;11392;57.390;-2.468;2023-12-20T03:48:44;3.30;99.90
22450;DHT22;11392;57.390;-2.468;2023-12-20T03:51:12;3.30;99.90
22450;DHT22;11392;57.390;-2.468;2023-12-20T03:53:39;3.30;99.90
22450;DHT22;11392;57.390;-2.468;2023-12-20T03:56:07;3.20;99.90
22450;DHT22;11392;57.390;-2.468;2023-12-20T03:58:35;3.10;99.90
22450;DHT22;11392;57.390;-2.468;2023-12-20T04:01:02;3.10;99.90
22450;DHT22;11392;57.390;-2.468;2023-12-20T04:03:29;3.10;99.90
22450;DHT22;11392;57.390;-2.468;2023-12-20T04:05:56;3.10;99.90
22450;DHT22;11392;57.390;-2.468;2023-12-20T04:08:23;3.10;99.90
22450;DHT22;11392;57.390;-2.468;2023-12-20T04:10:50;3.10;99.90
22450;DHT22;11392;57.390;-2.468;2023-12-20T04:13:17;3.10;99.90
22450;DHT22;11392;57.390;-2.468;2023-12-20T04:15:45;3.20;99.90
22450;DHT22;11392;57.390;-2.468;2023-12-20T04:18:12;3.20;99.90
22450;DHT22;11392;57.390;-2.468;2023-12-20T04:20:39;3.40;99.90
22450;DHT22;11392;57.390;-2.468;2023-12-20T04:23:06;3.40;99.90
22450;DHT22;11392;57.390;-2.468;2023-12-20T04:25:33;3.40;99.90
22450;DHT22;11392;57.390;-2.468;2023-12-20T04:28:00;3.50;99.90
22450;DHT22;11392;57.390;-2.468;2023-12-20T04:30:27;3.50;99.90
22450;DHT22;11392;57.390;-2.468;2023-12-20T04:32:54;3.50;99.90
22450;DHT22;11392;57.390;-2.468;2023-12-20T04:35:21;3.50;99.90
22450;DHT22;11392;57.390;-2.468;2023-12-20T04:37:48;3.50;99.90
22450;DHT22;11392;57.390;-2.468;2023-12-20T04:40:16;3.50;99.90
22450;DHT22;11392;57.390;-2.468;2023-12-20T04:42:43;3.40;99.90
22450;DHT22;11392;57.390;-2.468;2023-12-20T04:45:10;3.40;99.90
22450;DHT22;11392;57.390;-2.468;2023-12-20T04:47:39;3.30;99.90
22450;DHT22;11392;57.390;-2.468;2023-12-20T04:50:08;3.40;99.90
22450;DHT22;11392;57.390;-2.468;2023-12-20T04:52:36;3.40;99.90
22450;DHT22;11392;57.390;-2.468;2023-12-20T04:55:04;3.30;99.90
22450;DHT22;11392;57.390;-2.468;2023-12-20T04:57:31;3.40;99.90
22450;DHT22;11392;57.390;-2.468;2023-12-20T04:59:58;3.40;99.90
22450;DHT22;11392;57.390;-2.468;2023-12-20T05:02:25;3.40;99.90
22450;DHT22;11392;57.390;-2.468;2023-12-20T05:04:52;3.50;99.90
22450;DHT22;11392;57.390;-2.468;2023-12-20T05:07:21;3.50;99.90
22450;DHT22;11392;57.390;-2.468;2023-12-20T05:09:49;3.40;99.90
22450;DHT22;11392;57.390;-2.468;2023-12-20T05:12:16;3.50;99.90
22450;DHT22;11392;57.390;-2.468;2023-12-20T05:14:42;3.50;99.90
22450;DHT22;11392;57.390;-2.468;2023-12-20T05:17:10;3.50;99.90
22450;DHT22;11392;57.390;-2.468;2023-12-20T05:19:37;3.50;99.90
22450;DHT22;11392;57.390;-2.468;2023-12-20T05:22:04;3.60;99.90
22450;DHT22;11392;57.390;-2.468;2023-12-20T05:24:31;3.60;99.90
22450;DHT22;11392;57.390;-2.468;2023-12-20T05:26:58;3.70;99.90
22450;DHT22;11392;57.390;-2.468;2023-12-20T05:29:25;3.80;99.90
22450;DHT22;11392;57.390;-2.468;2023-12-20T05:31:52;3.80;99.90
22450;DHT22;11392;57.390;-2.468;2023-12-20T05:34:19;3.80;99.90
22450;DHT22;11392;57.390;-2.468;2023-12-20T05:36:47;3.80;99.90
22450;DHT22;11392;57.390;-2.468;2023-12-20T05:39:14;3.80;99.90
22450;DHT22;11392;57.390;-2.468;2023-12-20T05:41:41;3.80;99.90
22450;DHT22;11392;57.390;-2.468;2023-12-20T05:44:08;3.90;99.90
22450;DHT22;11392;57.390;-2.468;2023-12-20T05:46:35;3.90;99.90
22450;DHT22;11392;57.390;-2.468;2023-12-20T05:49:03;3.80;99.90
22450;DHT22;11392;57.390;-2.468;2023-12-20T05:51:30;3.80;99.90
22450;DHT22;11392;57.390;-2.468;2023-12-20T05:53:57;3.80;99.90
22450;DHT22;11392;57.390;-2.468;2023-12-20T05:56:24;3.80;99.90
22450;DHT22;11392;57.390;-2.468;2023-12-20T05:58:51;3.80;99.90
22450;DHT22;11392;57.390;-2.468;2023-12-20T06:01:18;3.70;99.90
22450;DHT22;11392;57.390;-2.468;2023-12-20T06:03:45;3.70;99.90
22450;DHT22;11392;57.390;-2.468;2023-12-20T06:06:15;3.60;99.90
22450;DHT22;11392;57.390;-2.468;2023-12-20T06:08:43;3.60;99.90
22450;DHT22;11392;57.390;-2.468;2023-12-20T06:11:11;3.60;99.90
22450;DHT22;11392;57.390;-2.468;2023-12-20T06:13:38;3.60;99.90
22450;DHT22;11392;57.390;-2.468;2023-12-20T06:16:08;3.60;99.90
22450;DHT22;11392;57.390;-2.468;2023-12-20T06:18:35;3.60;99.90
22450;DHT22;11392;57.390;-2.468;2023-12-20T06:21:04;3.50;99.90
22450;DHT22;11392;57.390;-2.468;2023-12-20T06:23:31;3.60;99.90
22450;DHT22;11392;57.390;-2.468;2023-12-20T06:25:58;3.60;99.90
22450;DHT22;11392;57.390;-2.468;2023-12-20T06:28:25;3.50;99.90
22450;DHT22;11392;57.390;-2.468;2023-12-20T06:30:52;3.50;99.90
22450;DHT22;11392;57.390;-2.468;2023-12-20T06:33:21;3.60;99.90
22450;DHT22;11392;57.390;-2.468;2023-12-20T06:35:49;3.70;99.90
22450;DHT22;11392;57.390;-2.468;2023-12-20T06:38:18;3.80;99.90
22450;DHT22;11392;57.390;-2.468;2023-12-20T06:40:45;4.00;99.90
22450;DHT22;11392;57.390;-2.468;2023-12-20T06:43:13;4.00;99.90
22450;DHT22;11392;57.390;-2.468;2023-12-20T06:45:58;4.10;99.90
22450;DHT22;11392;57.390;-2.468;2023-12-20T06:48:25;4.00;99.90
22450;DHT22;11392;57.390;-2.468;2023-12-20T06:50:52;4.00;99.90
22450;DHT22;11392;57.390;-2.468;2023-12-20T06:53:20;4.00;99.90
22450;DHT22;11392;57.390;-2.468;2023-12-20T06:55:47;4.00;99.90
22450;DHT22;11392;57.390;-2.468;2023-12-20T06:58:14;4.00;99.90
22450;DHT22;11392;57.390;-2.468;2023-12-20T07:00:41;4.20;99.90
22450;DHT22;11392;57.390;-2.468;2023-12-20T07:03:09;4.20;99.90
22450;DHT22;11392;57.390;-2.468;2023-12-20T07:05:36;4.20;99.90
22450;DHT22;11392;57.390;-2.468;2023-12-20T07:08:04;4.30;99.90
22450;DHT22;11392;57.390;-2.468;2023-12-20T07:10:31;4.20;99.90
22450;DHT22;11392;57.390;-2.468;2023-12-20T07:12:58;4.20;99.90
22450;DHT22;11392;57.390;-2.468;2023-12-20T07:15:25;4.30;99.90
22450;DHT22;11392;57.390;-2.468;2023-12-20T07:17:53;4.30;99.90
22450;DHT22;11392;57.390;-2.468;2023-12-20T07:20:21;4.20;99.90
22450;DHT22;11392;57.390;-2.468;2023-12-20T07:22:48;4.20;99.90
22450;DHT22;11392;57.390;-2.468;2023-12-20T07:25:15;4.10;99.90
22450;DHT22;11392;57.390;-2.468;2023-12-20T07:27:42;4.10;99.90
22450;DHT22;11392;57.390;-2.468;2023-12-20T07:30:11;4.10;99.90
22450;DHT22;11392;57.390;-2.468;2023-12-20T07:32:39;4.10;99.90
22450;DHT22;11392;57.390;-2.468;2023-12-20T07:35:07;4.10;99.90
22450;DHT22;11392;57.390;-2.468;2023-12-20T07:37:34;4.10;99.90
22450;DHT22;11392;57.390;-2.468;2023-12-20T07:40:01;4.20;99.90
22450;DHT22;11392;57.390;-2.468;2023-12-20T07:42:30;4.20;99.90
22450;DHT22;11392;57.390;-2.468;2023-12-20T07:44:57;4.20;99.90
22450;DHT22;11392;57.390;-2.468;2023-12-20T07:47:24;4.30;99.90
22450;DHT22;11392;57.390;-2.468;2023-12-20T07:49:52;4.30;99.90
22450;DHT22;11392;57.390;-2.468;2023-12-20T07:52:19;4.40;99.90
22450;DHT22;11392;57.390;-2.468;2023-12-20T07:54:48;4.40;99.90
22450;DHT22;11392;57.390;-2.468;2023-12-20T07:57:17;4.50;99.90
22450;DHT22;11392;57.390;-2.468;2023-12-20T07:59:44;4.50;99.90
22450;DHT22;11392;57.390;-2.468;2023-12-20T08:02:11;4.60;99.90
22450;DHT22;11392;57.390;-2.468;2023-12-20T08:04:39;4.50;99.90
22450;DHT22;11392;57.390;-2.468;2023-12-20T08:07:06;4.50;99.90
22450;DHT22;11392;57.390;-2.468;2023-12-20T08:09:33;4.50;99.90
22450;DHT22;11392;57.390;-2.468;2023-12-20T08:12:03;4.50;99.90
22450;DHT22;11392;57.390;-2.468;2023-12-20T08:14:30;4.60;99.90
22450;DHT22;11392;57.390;-2.468;2023-12-20T08:16:58;4.60;99.90
22450;DHT22;11392;57.390;-2.468;2023-12-20T08:19:25;4.60;99.90
22450;DHT22;11392;57.390;-2.468;2023-12-20T08:21:52;4.60;99.90
22450;DHT22;11392;57.390;-2.468;2023-12-20T08:24:20;4.70;99.90
22450;DHT22;11392;57.390;-2.468;2023-12-20T08:26:47;4.70;99.90
22450;DHT22;11392;57.390;-2.468;2023-12-20T08:29:14;4.70;99.90
22450;DHT22;11392;57.390;-2.468;2023-12-20T08:31:41;4.70;99.90
22450;DHT22;11392;57.390;-2.468;2023-12-20T08:34:08;4.80;99.90
22450;DHT22;11392;57.390;-2.468;2023-12-20T08:36:35;4.70;99.90
22450;DHT22;11392;57.390;-2.468;2023-12-20T08:39:02;4.70;99.90
22450;DHT22;11392;57.390;-2.468;2023-12-20T08:41:33;4.80;99.90
22450;DHT22;11392;57.390;-2.468;2023-12-20T08:44:00;4.80;99.90
22450;DHT22;11392;57.390;-2.468;2023-12-20T08:46:27;4.80;99.90
22450;DHT22;11392;57.390;-2.468;2023-12-20T08:48:54;4.80;99.90
22450;DHT22;11392;57.390;-2.468;2023-12-20T08:51:22;4.80;99.90
22450;DHT22;11392;57.390;-2.468;2023-12-20T08:53:50;4.90;99.90
22450;DHT22;11392;57.390;-2.468;2023-12-20T08:56:17;4.80;99.90
22450;DHT22;11392;57.390;-2.468;2023-12-20T08:58:48;4.80;99.90
22450;DHT22;11392;57.390;-2.468;2023-12-20T09:01:15;4.90;99.90
22450;DHT22;11392;57.390;-2.468;2023-12-20T09:03:42;4.80;99.90
22450;DHT22;11392;57.390;-2.468;2023-12-20T09:06:10;4.80;99.90
22450;DHT22;11392;57.390;-2.468;2023-12-20T09:08:37;4.80;99.90
22450;DHT22;11392;57.390;-2.468;2023-12-20T09:11:04;4.80;99.90
22450;DHT22;11392;57.390;-2.468;2023-12-20T09:13:32;4.80;99.90
22450;DHT22;11392;57.390;-2.468;2023-12-20T09:15:59;4.80;99.90
22450;DHT22;11392;57.390;-2.468;2023-12-20T09:18:27;4.80;99.90
22450;DHT22;11392;57.390;-2.468;2023-12-20T09:20:54;4.80;99.90
22450;DHT22;11392;57.390;-2.468;2023-12-20T09:23:22;4.70;99.90
22450;DHT22;11392;57.390;-2.468;2023-12-20T09:25:49;4.80;99.90
22450;DHT22;11392;57.390;-2.468;2023-12-20T09:28:16;4.80;99.90
22450;DHT22;11392;57.390;-2.468;2023-12-20T09:30:43;4.80;99.90
22450;DHT22;11392;57.390;-2.468;2023-12-20T09:33:12;4.80;99.90
22450;DHT22;11392;57.390;-2.468;2023-12-20T09:35:39;4.70;99.90
22450;DHT22;11392;57.390;-2.468;2023-12-20T09:38:07;4.70;99.90
22450;DHT22;11392;57.390;-2.468;2023-12-20T09:40:35;4.70;99.90
22450;DHT22;11392;57.390;-2.468;2023-12-20T09:43:11;4.70;99.90
22450;DHT22;11392;57.390;-2.468;2023-12-20T09:45:40;4.70;99.90
22450;DHT22;11392;57.390;-2.468;2023-12-20T09:48:11;4.70;99.90
22450;DHT22;11392;57.390;-2.468;2023-12-20T09:50:39;4.60;99.90
22450;DHT22;11392;57.390;-2.468;2023-12-20T09:53:08;4.60;99.90
22450;DHT22;11392;57.390;-2.468;2023-12-20T09:55:36;4.60;99.90
22450;DHT22;11392;57.390;-2.468;2023-12-20T09:58:04;4.60;99.90
22450;DHT22;11392;57.390;-2.468;2023-12-20T10:00:33;4.60;99.90
22450;DHT22;11392;57.390;-2.468;2023-12-20T10:03:00;4.60;99.90
22450;DHT22;11392;57.390;-2.468;2023-12-20T10:05:30;4.70;99.90
22450;DHT22;11392;57.390;-2.468;2023-12-20T10:07:58;4.60;99.90
22450;DHT22;11392;57.390;-2.468;2023-12-20T10:10:29;4.60;99.90
22450;DHT22;11392;57.390;-2.468;2023-12-20T10:13:11;4.60;99.90
22450;DHT22;11392;57.390;-2.468;2023-12-20T10:15:39;4.60;99.90
22450;DHT22;11392;57.390;-2.468;2023-12-20T10:18:08;4.60;99.90
22450;DHT22;11392;57.390;-2.468;2023-12-20T10:20:36;4.60;99.90
22450;DHT22;11392;57.390;-2.468;2023-12-20T10:23:03;4.60;99.90
22450;DHT22;11392;57.390;-2.468;2023-12-20T10:25:30;4.60;99.90
22450;DHT22;11392;57.390;-2.468;2023-12-20T10:28:10;4.60;99.90
22450;DHT22;11392;57.390;-2.468;2023-12-20T10:30:38;4.60;99.90
22450;DHT22;11392;57.390;-2.468;2023-12-20T10:33:09;4.60;99.90
22450;DHT22;11392;57.390;-2.468;2023-12-20T10:35:38;4.60;99.90
22450;DHT22;11392;57.390;-2.468;2023-12-20T10:38:12;4.70;99.90
22450;DHT22;11392;57.390;-2.468;2023-12-20T10:40:40;4.60;99.90
22450;DHT22;11392;57.390;-2.468;2023-12-20T10:43:08;4.70;99.90
22450;DHT22;11392;57.390;-2.468;2023-12-20T10:45:36;4.70;99.90
22450;DHT22;11392;57.390;-2.468;2023-12-20T10:48:04;4.70;99.90
22450;DHT22;11392;57.390;-2.468;2023-12-20T10:50:31;4.70;99.90
22450;DHT22;11392;57.390;-2.468;2023-12-20T10:52:59;4.70;99.90
22450;DHT22;11392;57.390;-2.468;2023-12-20T10:55:27;4.80;99.90
22450;DHT22;11392;57.390;-2.468;2023-12-20T10:58:08;4.80;99.90
22450;DHT22;11392;57.390;-2.468;2023-12-20T11:00:43;4.80;99.90
22450;DHT22;11392;57.390;-2.468;2023-12-20T11:03:13;4.80;99.90
22450;DHT22;11392;57.390;-2.468;2023-12-20T11:05:50;4.90;99.90
22450;DHT22;11392;57.390;-2.468;2023-12-20T11:08:28;4.80;99.90
22450;DHT22;11392;57.390;-2.468;2023-12-20T11:13:53;4.90;99.90
22450;DHT22;11392;57.390;-2.468;2023-12-20T11:16:21;4.80;99.90
22450;DHT22;11392;57.390;-2.468;2023-12-20T11:18:52;4.90;99.90
22450;DHT22;11392;57.390;-2.468;2023-12-20T11:21:19;4.80;99.90
22450;DHT22;11392;57.390;-2.468;2023-12-20T11:23:47;4.80;99.90
22450;DHT22;11392;57.390;-2.468;2023-12-20T11:26:16;4.80;99.90
22450;DHT22;11392;57.390;-2.468;2023-12-20T11:28:44;4.80;99.90
22450;DHT22;11392;57.390;-2.468;2023-12-20T11:31:14;4.80;99.90
22450;DHT22;11392;57.390;-2.468;2023-12-20T11:33:42;4.80;99.90
22450;DHT22;11392;57.390;-2.468;2023-12-20T11:36:14;4.80;99.90
22450;DHT22;11392;57.390;-2.468;2023-12-20T11:38:56;4.80;99.90
22450;DHT22;11392;57.390;-2.468;2023-12-20T11:41:25;4.80;99.90
22450;DHT22;11392;57.390;-2.468;2023-12-20T11:43:56;4.80;99.90
22450;DHT22;11392;57.390;-2.468;2023-12-20T11:46:23;4.80;99.90
22450;DHT22;11392;57.390;-2.468;2023-12-20T11:48:50;4.80;99.90
22450;DHT22;11392;57.390;-2.468;2023-12-20T11:51:18;4.70;99.90
22450;DHT22;11392;57.390;-2.468;2023-12-20T11:53:45;4.70;99.90
22450;DHT22;11392;57.390;-2.468;2023-12-20T11:56:18;4.70;99.90
22450;DHT22;11392;57.390;-2.468;2023-12-20T11:58:45;4.70;99.90
22450;DHT22;11392;57.390;-2.468;2023-12-20T12:01:14;4.70;99.90
22450;DHT22;11392;57.390;-2.468;2023-12-20T12:03:42;4.70;99.90
22450;DHT22;11392;57.390;-2.468;2023-12-20T12:06:09;4.70;99.90
22450;DHT22;11392;57.390;-2.468;2023-12-20T12:08:37;4.70;99.90
22450;DHT22;11392;57.390;-2.468;2023-12-20T12:11:04;4.70;99.90
22450;DHT22;11392;57.390;-2.468;2023-12-20T12:13:31;4.70;99.90
22450;DHT22;11392;57.390;-2.468;2023-12-20T12:15:59;4.70;99.90
22450;DHT22;11392;57.390;-2.468;2023-12-20T12:18:26;4.70;99.90
22450;DHT22;11392;57.390;-2.468;2023-12-20T12:21:00;4.70;99.90
22450;DHT22;11392;57.390;-2.468;2023-12-20T12:23:28;4.70;99.90
22450;DHT22;11392;57.390;-2.468;2023-12-20T12:25:55;4.80;99.90
22450;DHT22;11392;57.390;-2.468;2023-12-20T12:28:26;4.80;99.90
22450;DHT22;11392;57.390;-2.468;2023-12-20T12:30:59;4.80;99.90
22450;DHT22;11392;57.390;-2.468;2023-12-20T12:33:26;4.80;99.90
22450;DHT22;11392;57.390;-2.468;2023-12-20T12:35:54;4.80;99.90
22450;DHT22;11392;57.390;-2.468;2023-12-20T12:38:22;4.80;99.90
22450;DHT22;11392;57.390;-2.468;2023-12-20T12:40:49;4.80;99.90
22450;DHT22;11392;57.390;-2.468;2023-12-20T12:43:17;4.80;99.90
22450;DHT22;11392;57.390;-2.468;2023-12-20T12:45:44;4.90;99.90
22450;DHT22;11392;57.390;-2.468;2023-12-20T12:48:11;4.90;99.90
22450;DHT22;11392;57.390;-2.468;2023-12-20T12:50:38;4.90;99.90
22450;DHT22;11392;57.390;-2.468;2023-12-20T12:53:05;4.90;99.90
22450;DHT22;11392;57.390;-2.468;2023-12-20T12:55:34;5.00;99.90
22450;DHT22;11392;57.390;-2.468;2023-12-20T12:58:01;4.90;99.90
22450;DHT22;11392;57.390;-2.468;2023-12-20T13:00:29;5.00;99.90
22450;DHT22;11392;57.390;-2.468;2023-12-20T13:02:56;5.00;99.90
22450;DHT22;11392;57.390;-2.468;2023-12-20T13:05:23;5.00;99.90
22450;DHT22;11392;57.390;-2.468;2023-12-20T13:07:50;4.90;99.90
22450;DHT22;11392;57.390;-2.468;2023-12-20T13:10:17;4.90;99.90
22450;DHT22;11392;57.390;-2.468;2023-12-20T13:12:45;5.00;99.90
22450;DHT22;11392;57.390;-2.468;2023-12-20T13:15:13;5.00;99.90
22450;DHT22;11392;57.390;-2.468;2023-12-20T13:17:40;5.00;99.90
22450;DHT22;11392;57.390;-2.468;2023-12-20T13:20:07;5.00;99.90
22450;DHT22;11392;57.390;-2.468;2023-12-20T13:22:35;5.10;99.90
22450;DHT22;11392;57.390;-2.468;2023-12-20T13:25:03;5.10;99.90
22450;DHT22;11392;57.390;-2.468;2023-12-20T13:27:30;5.10;99.90
22450;DHT22;11392;57.390;-2.468;2023-12-20T13:29:58;5.20;99.90
22450;DHT22;11392;57.390;-2.468;2023-12-20T13:32:25;5.10;99.90
22450;DHT22;11392;57.390;-2.468;2023-12-20T13:34:52;5.20;99.90
22450;DHT22;11392;57.390;-2.468;2023-12-20T13:37:19;5.20;99.90
22450;DHT22;11392;57.390;-2.468;2023-12-20T13:39:48;5.20;99.90
22450;DHT22;11392;57.390;-2.468;2023-12-20T13:42:15;5.30;99.90
22450;DHT22;11392;57.390;-2.468;2023-12-20T13:44:42;5.30;99.90
22450;DHT22;11392;57.390;-2.468;2023-12-20T13:47:10;5.30;99.90
22450;DHT22;11392;57.390;-2.468;2023-12-20T13:49:37;5.30;99.90
22450;DHT22;11392;57.390;-2.468;2023-12-20T13:52:05;5.30;99.90
22450;DHT22;11392;57.390;-2.468;2023-12-20T13:54:32;5.30;99.90
22450;DHT22;11392;57.390;-2.468;2023-12-20T13:56:59;5.40;99.90
22450;DHT22;11392;57.390;-2.468;2023-12-20T13:59:42;5.40;99.90
22450;DHT22;11392;57.390;-2.468;2023-12-20T14:02:09;5.50;99.90
22450;DHT22;11392;57.390;-2.468;2023-12-20T14:04:36;5.50;99.90
22450;DHT22;11392;57.390;-2.468;2023-12-20T14:07:10;5.70;99.90
22450;DHT22;11392;57.390;-2.468;2023-12-20T14:09:40;5.90;99.90
22450;DHT22;11392;57.390;-2.468;2023-12-20T14:12:13;6.10;99.90
22450;DHT22;11392;57.390;-2.468;2023-12-20T14:14:41;6.40;99.90
22450;DHT22;11392;57.390;-2.468;2023-12-20T14:17:08;6.50;99.90
22450;DHT22;11392;57.390;-2.468;2023-12-20T14:19:36;6.80;99.90
22450;DHT22;11392;57.390;-2.468;2023-12-20T14:22:03;7.10;99.90
22450;DHT22;11392;57.390;-2.468;2023-12-20T14:24:31;7.20;99.90
22450;DHT22;11392;57.390;-2.468;2023-12-20T14:26:59;7.30;99.90
22450;DHT22;11392;57.390;-2.468;2023-12-20T14:29:26;7.40;99.90
22450;DHT22;11392;57.390;-2.468;2023-12-20T14:31:54;7.50;99.90
22450;DHT22;11392;57.390;-2.468;2023-12-20T14:34:21;7.60;99.90
22450;DHT22;11392;57.390;-2.468;2023-12-20T14:36:48;7.60;99.90
22450;DHT22;11392;57.390;-2.468;2023-12-20T14:39:15;7.70;99.90
22450;DHT22;11392;57.390;-2.468;2023-12-20T14:41:44;7.70;99.90
22450;DHT22;11392;57.390;-2.468;2023-12-20T14:44:11;7.80;99.90
22450;DHT22;11392;57.390;-2.468;2023-12-20T14:46:38;7.90;99.90
22450;DHT22;11392;57.390;-2.468;2023-12-20T14:49:08;7.90;99.90
22450;DHT22;11392;57.390;-2.468;2023-12-20T14:51:36;8.00;99.90
22450;DHT22;11392;57.390;-2.468;2023-12-20T14:54:05;7.90;99.90
22450;DHT22;11392;57.390;-2.468;2023-12-20T14:56:36;8.00;99.90
22450;DHT22;11392;57.390;-2.468;2023-12-20T14:59:03;8.00;99.90
22450;DHT22;11392;57.390;-2.468;2023-12-20T15:01:30;8.00;99.90
22450;DHT22;11392;57.390;-2.468;2023-12-20T15:03:58;8.00;99.90
22450;DHT22;11392;57.390;-2.468;2023-12-20T15:06:25;8.00;99.90
22450;DHT22;11392;57.390;-2.468;2023-12-20T15:08:52;8.10;99.90
22450;DHT22;11392;57.390;-2.468;2023-12-20T15:11:19;8.10;99.90
22450;DHT22;11392;57.390;-2.468;2023-12-20T15:13:46;8.10;99.90
22450;DHT22;11392;57.390;-2.468;2023-12-20T15:16:21;8.10;99.90
22450;DHT22;11392;57.390;-2.468;2023-12-20T15:18:49;8.20;99.90
22450;DHT22;11392;57.390;-2.468;2023-12-20T15:21:17;8.20;99.90
22450;DHT22;11392;57.390;-2.468;2023-12-20T15:23:44;8.20;99.90
22450;DHT22;11392;57.390;-2.468;2023-12-20T15:26:19;8.20;99.90
22450;DHT22;11392;57.390;-2.468;2023-12-20T15:28:46;8.20;99.90
22450;DHT22;11392;57.390;-2.468;2023-12-20T15:31:13;8.10;99.90
22450;DHT22;11392;57.390;-2.468;2023-12-20T15:33:40;8.10;99.90
22450;DHT22;11392;57.390;-2.468;2023-12-20T15:36:08;8.10;99.90
22450;DHT22;11392;57.390;-2.468;2023-12-20T15:38:35;8.10;99.90